Time;durP1;ratioP1;P1;durP2;ratioP2;P2;SDS_P1;SDS_P2;PMS_P1;PMS_P2;Temp;Humidity;BMP_temperature;BMP_pressure;BME280_temperature;BME280_humidity;BME280_pressure;Samples;Min_cycle;Max_cycle;Signal;HPM_P1;HPM_P2
2024/02/23 00:01:03;;;;;;;1.02;0.28;;;;;;;8.87;62.97;97666.75;4996791;28;20056;-83
2024/02/23 00:03:29;;;;;;;0.50;0.35;;;;;;;8.85;63.12;97694.66;4979403;28;20481;-84
2024/02/23 00:05:56;;;;;;;2.13;0.60;;;;;;;8.84;63.03;97693.81;4979306;28;20473;-82
2024/02/23 00:08:22;;;;;;;2.92;0.50;;;;;;;8.83;63.90;97683.47;4977131;28;20077;-84
2024/02/23 00:10:50;;;;;;;1.85;0.25;;;;;;;8.82;63.80;97718.28;4981442;28;20065;-83
2024/02/23 00:13:28;;;;;;;3.30;0.65;;;;;;;8.84;64.21;97719.91;4981993;28;20433;-83
2024/02/23 00:15:58;;;;;;;2.83;0.70;;;;;;;8.83;64.13;97728.66;4980796;28;20100;-84
2024/02/23 00:18:25;;;;;;;4.85;1.13;;;;;;;8.85;64.36;97721.59;4985626;28;20073;-83
2024/02/23 00:20:52;;;;;;;1.67;0.30;;;;;;;8.80;63.23;97707.09;4990859;28;20050;-84
2024/02/23 00:23:19;;;;;;;3.17;0.65;;;;;;;8.79;62.70;97703.63;4980163;28;20576;-84
2024/02/23 00:25:45;;;;;;;3.15;0.32;;;;;;;8.81;63.29;97747.91;4995124;28;20046;-83
2024/02/23 00:28:12;;;;;;;8.30;0.57;;;;;;;8.82;63.12;97740.00;4996584;28;20505;-84
2024/02/23 00:30:39;;;;;;;1.63;0.77;;;;;;;8.84;63.19;97745.13;4978744;28;20528;-84
2024/02/23 00:33:06;;;;;;;1.70;0.43;;;;;;;8.83;63.44;97733.03;4983940;28;20076;-83
2024/02/23 00:35:33;;;;;;;2.20;0.50;;;;;;;8.85;63.57;97732.03;4995726;28;20077;-83
2024/02/23 00:38:01;;;;;;;1.90;0.90;;;;;;;8.81;63.60;97738.31;4979835;28;20081;-82
2024/02/23 00:40:28;;;;;;;0.93;0.35;;;;;;;8.83;64.20;97751.28;4983242;28;20058;-84
2024/02/23 00:42:55;;;;;;;2.30;0.45;;;;;;;8.84;64.11;97738.16;4994751;28;20533;-82
2024/02/23 00:45:22;;;;;;;1.13;0.68;;;;;;;8.79;64.15;97768.84;4995714;28;20496;-83
2024/02/23 00:47:49;;;;;;;1.83;0.30;;;;;;;8.81;63.73;97753.94;4984125;28;20726;-85
2024/02/23 00:50:15;;;;;;;3.95;0.40;;;;;;;8.80;63.34;97762.72;4978384;28;20061;-83
2024/02/23 00:52:42;;;;;;;5.50;0.60;;;;;;;8.82;62.48;97757.44;4988699;28;20109;-84
2024/02/23 00:55:09;;;;;;;1.98;0.47;;;;;;;8.77;62.98;97768.94;4975214;28;20062;-83
2024/02/23 00:57:39;;;;;;;0.60;0.28;;;;;;;8.71;63.04;97773.59;4981927;28;20078;-83
2024/02/23 01:00:09;;;;;;;1.65;0.52;;;;;;;8.68;63.23;97778.94;4975909;28;20053;-84
2024/02/23 01:02:38;;;;;;;2.20;0.20;;;;;;;8.70;63.05;97753.66;4995712;28;20128;-82
2024/02/23 01:05:06;;;;;;;1.85;0.20;;;;;;;8.74;63.25;97776.88;4978162;28;20441;-83
2024/02/23 01:07:32;;;;;;;5.47;0.60;;;;;;;8.65;63.97;97779.09;4993078;28;20124;-85
2024/02/23 01:09:59;;;;;;;1.42;0.30;;;;;;;8.60;64.49;97774.94;4992804;28;20049;-84
2024/02/23 01:12:26;;;;;;;0.65;0.50;;;;;;;8.54;64.52;97792.63;4992308;28;20101;-83
2024/02/23 01:14:54;;;;;;;0.47;0.22;;;;;;;8.40;65.35;97790.63;4979732;28;20070;-82
2024/02/23 01:17:21;;;;;;;0.63;0.10;;;;;;;8.32;65.23;97811.84;4978176;28;20052;-82
2024/02/23 01:19:47;;;;;;;0.98;0.10;;;;;;;8.27;65.63;97826.84;4994151;28;20073;-84
2024/02/23 01:22:14;;;;;;;0.20;0.10;;;;;;;8.24;65.87;97832.19;4993984;28;20046;-83
2024/02/23 01:24:41;;;;;;;1.77;0.40;;;;;;;8.25;66.12;97841.69;4975566;28;20065;-82
2024/02/23 01:27:08;;;;;;;0.20;0.10;;;;;;;8.28;66.36;97857.22;4978477;28;20104;-83
2024/02/23 01:29:35;;;;;;;0.20;0.20;;;;;;;8.16;67.21;97839.50;4993218;28;20061;-83
2024/02/23 01:32:01;;;;;;;0.20;0.20;;;;;;;8.13;68.32;97881.31;4981271;28;20202;-81
2024/02/23 01:34:28;;;;;;;2.35;0.17;;;;;;;8.03;69.58;97893.91;4976040;28;20064;-83
2024/02/23 01:36:54;;;;;;;2.53;0.10;;;;;;;7.85;71.67;97901.59;4976155;28;20064;-83
2024/02/23 01:39:26;;;;;;;0.75;0.10;;;;;;;7.82;72.73;97926.91;4983465;28;20060;-85
2024/02/23 01:41:54;;;;;;;1.13;0.08;;;;;;;7.59;76.67;97916.53;4979826;28;20564;-83
2024/02/23 01:44:25;;;;;;;0.65;0.05;;;;;;;7.51;80.23;97938.56;4995927;28;20064;-83
2024/02/23 01:46:52;;;;;;;0.17;0.10;;;;;;;7.29;83.11;97955.88;4976804;28;20497;-83
2024/02/23 01:49:19;;;;;;;1.48;0.00;;;;;;;7.08;88.07;98001.78;4980578;28;20053;-84
2024/02/23 01:51:46;;;;;;;0.00;0.00;;;;;;;6.91;90.52;97988.56;4999051;28;20381;-84
2024/02/23 01:54:13;;;;;;;0.20;0.20;;;;;;;6.79;90.59;98019.31;4980165;28;20042;-81
2024/02/23 01:56:40;;;;;;;0.00;0.00;;;;;;;6.77;92.51;98013.31;4978195;28;21348;-84
2024/02/23 01:59:09;;;;;;;0.00;0.00;;;;;;;6.64;93.57;98035.47;4978392;28;20449;-83
2024/02/23 02:01:36;;;;;;;1.08;0.80;;;;;;;6.50;94.80;98043.72;4974948;28;20048;-84
2024/02/23 02:04:03;;;;;;;0.43;0.03;;;;;;;6.45;96.29;98053.44;4995257;28;20052;-85
2024/02/23 02:06:29;;;;;;;0.00;0.00;;;;;;;6.21;99.72;98055.13;4994679;28;20041;-85
2024/02/23 02:09:00;;;;;;;0.00;0.00;;;;;;;6.13;100.00;98073.56;4977807;28;20061;-83
2024/02/23 02:11:27;;;;;;;0.08;0.08;;;;;;;6.06;100.00;98104.06;4979063;28;20049;-84
2024/02/23 02:13:53;;;;;;;0.00;0.00;;;;;;;5.92;100.00;98098.44;4975946;28;20137;-82
2024/02/23 02:16:23;;;;;;;0.00;0.00;;;;;;;5.81;100.00;98114.31;4975023;28;20057;-85
2024/02/23 02:18:50;;;;;;;0.00;0.00;;;;;;;5.81;100.00;98129.91;4977722;28;20049;-84
2024/02/23 02:21:16;;;;;;;0.00;0.00;;;;;;;5.74;100.00;98128.41;4998670;28;20046;-84
2024/02/23 02:23:43;;;;;;;0.00;0.00;;;;;;;5.78;100.00;98142.97;4979338;28;20045;-84
2024/02/23 02:26:10;;;;;;;0.00;0.00;;;;;;;5.79;100.00;98150.72;4976628;28;20537;-85
2024/02/23 02:28:36;;;;;;;0.00;0.00;;;;;;;5.73;100.00;98127.53;4994694;28;20045;-83
2024/02/23 02:31:04;;;;;;;0.00;0.00;;;;;;;5.71;100.00;98142.31;4975704;28;20042;-84
2024/02/23 02:33:31;;;;;;;0.00;0.00;;;;;;;5.69;100.00;98140.66;4979065;28;20049;-82
2024/02/23 02:35:57;;;;;;;0.00;0.00;;;;;;;5.72;100.00;98161.31;4974026;28;20560;-83
2024/02/23 02:38:24;;;;;;;0.00;0.00;;;;;;;5.77;100.00;98162.03;4972428;28;20080;-84
2024/02/23 02:40:51;;;;;;;0.28;0.10;;;;;;;5.73;100.00;98166.47;4979010;28;20046;-84
2024/02/23 02:43:17;;;;;;;0.00;0.00;;;;;;;5.76;100.00;98169.00;4975652;28;20058;-84
2024/02/23 02:45:44;;;;;;;0.00;0.00;;;;;;;5.80;100.00;98180.97;4989572;28;20042;-83
2024/02/23 02:48:10;;;;;;;0.20;0.00;;;;;;;5.77;100.00;98190.59;4992190;28;20077;-83
2024/02/23 02:50:37;;;;;;;0.00;0.00;;;;;;;5.77;99.94;98188.84;4974610;28;20073;-84
2024/02/23 02:53:04;;;;;;;0.00;0.00;;;;;;;5.76;99.63;98188.88;4990541;28;20104;-84
2024/02/23 02:55:33;;;;;;;0.00;0.00;;;;;;;5.79;98.93;98212.19;4973376;28;20506;-83
2024/02/23 02:58:00;;;;;;;0.25;0.10;;;;;;;5.71;96.66;98186.44;4961946;28;20156;-84
2024/02/23 03:00:27;;;;;;;3.72;0.20;;;;;;;5.70;95.28;98208.09;4991330;28;20088;-82
2024/02/23 03:02:55;;;;;;;0.20;0.10;;;;;;;5.65;95.25;98211.72;5000057;28;20045;-83
2024/02/23 03:05:22;;;;;;;1.45;0.30;;;;;;;5.58;94.62;98209.31;4984051;28;20046;-83
2024/02/23 03:07:49;;;;;;;0.22;0.22;;;;;;;5.56;94.64;98205.03;4991938;28;20466;-84
2024/02/23 03:10:16;;;;;;;1.67;0.50;;;;;;;5.45;93.59;98197.56;4992517;28;20034;-85
2024/02/23 03:12:42;;;;;;;0.22;0.22;;;;;;;5.46;92.98;98213.09;4975545;28;21147;-84
2024/02/23 03:15:11;;;;;;;0.32;0.20;;;;;;;5.39;92.49;98219.31;4972713;28;20069;-83
2024/02/23 03:17:37;;;;;;;0.35;0.20;;;;;;;5.41;92.84;98221.88;4973083;28;20104;-83
2024/02/23 03:20:08;;;;;;;1.42;0.25;;;;;;;5.39;91.61;98226.28;4991746;28;20046;-84
2024/02/23 03:22:34;;;;;;;1.05;0.20;;;;;;;5.41;91.84;98240.91;4973756;28;20133;-83
2024/02/23 03:25:07;;;;;;;0.63;0.43;;;;;;;5.43;92.18;98241.69;4972375;28;20050;-81
2024/02/23 03:27:34;;;;;;;0.20;0.20;;;;;;;5.42;92.37;98241.75;4975836;28;20445;-83
2024/02/23 03:30:01;;;;;;;0.20;0.20;;;;;;;5.40;92.82;98244.38;4975540;28;20395;-83
2024/02/23 03:32:28;;;;;;;1.35;0.38;;;;;;;5.42;93.15;98242.63;4992013;28;20046;-83
2024/02/23 03:34:54;;;;;;;0.65;0.20;;;;;;;5.41;93.30;98266.84;4970524;28;20048;-83
2024/02/23 03:37:21;;;;;;;2.47;0.40;;;;;;;5.36;93.66;98268.72;4973361;28;20049;-84
2024/02/23 03:39:48;;;;;;;1.13;0.40;;;;;;;5.36;93.25;98267.84;4975794;28;20041;-83
2024/02/23 03:42:15;;;;;;;1.95;1.05;;;;;;;5.40;91.70;98277.28;4973754;28;20847;-83
2024/02/23 03:44:42;;;;;;;0.15;0.13;;;;;;;5.40;91.84;98272.91;4972206;28;20038;-82
2024/02/23 03:47:09;;;;;;;2.28;0.22;;;;;;;5.40;91.30;98280.72;4974064;28;20445;-83
2024/02/23 03:49:39;;;;;;;0.75;0.45;;;;;;;5.39;90.58;98294.56;4975147;28;20041;-83
2024/02/23 03:52:06;;;;;;;1.35;0.40;;;;;;;5.42;90.61;98296.22;4976359;28;20058;-82
2024/02/23 03:54:32;;;;;;;2.03;0.20;;;;;;;5.47;90.46;98309.94;4990408;28;20068;-83
2024/02/23 03:56:59;;;;;;;1.58;0.60;;;;;;;5.50;90.37;98307.28;4976168;28;20121;-83
2024/02/23 03:59:29;;;;;;;1.27;0.30;;;;;;;5.51;89.98;98318.50;4971860;28;20050;-82
2024/02/23 04:01:56;;;;;;;0.65;0.30;;;;;;;5.49;89.31;98308.16;4975723;28;20752;-84
2024/02/23 04:04:24;;;;;;;0.98;0.55;;;;;;;5.50;88.98;98317.66;4977126;28;20041;-84
2024/02/23 04:06:50;;;;;;;0.40;0.40;;;;;;;5.54;86.02;98323.59;4989602;28;20148;-83
2024/02/23 04:09:17;;;;;;;0.52;0.40;;;;;;;5.60;85.61;98323.44;4993467;28;20061;-82
2024/02/23 04:11:44;;;;;;;0.40;0.40;;;;;;;5.65;85.20;98329.38;4977959;28;20038;-83
2024/02/23 04:14:10;;;;;;;1.27;0.55;;;;;;;5.66;84.69;98338.00;4977290;28;20073;-82
2024/02/23 04:16:42;;;;;;;2.10;0.70;;;;;;;5.63;83.21;98316.44;4973409;28;20117;-83
2024/02/23 04:19:09;;;;;;;3.00;0.93;;;;;;;5.69;82.41;98336.19;4975506;28;20066;-83
2024/02/23 04:21:35;;;;;;;0.40;0.40;;;;;;;5.73;81.43;98330.00;4977815;28;20150;-83
2024/02/23 04:24:02;;;;;;;1.48;0.60;;;;;;;5.85;81.12;98354.78;4988173;28;20049;-82
2024/02/23 04:26:29;;;;;;;2.92;0.70;;;;;;;5.85;81.55;98351.34;4989545;28;20550;-84
2024/02/23 04:28:58;;;;;;;2.22;1.63;;;;;;;5.77;81.02;98349.78;4991526;28;20091;-82
2024/02/23 04:31:27;;;;;;;1.30;0.60;;;;;;;5.76;81.33;98344.66;4980296;28;20045;-84
2024/02/23 04:33:54;;;;;;;2.42;0.88;;;;;;;5.76;80.89;98352.44;4980862;28;20045;-83
2024/02/23 04:36:25;;;;;;;2.28;0.85;;;;;;;5.84;80.94;98355.69;4974259;28;20162;-82
2024/02/23 04:38:52;;;;;;;1.85;0.57;;;;;;;5.83;80.98;98361.78;4991886;28;20041;-83
2024/02/23 04:41:22;;;;;;;1.08;0.57;;;;;;;5.87;80.22;98363.41;4978738;28;20302;-81
2024/02/23 04:43:49;;;;;;;1.58;0.57;;;;;;;5.90;80.10;98352.91;4960038;28;20390;-81
2024/02/23 04:46:15;;;;;;;1.80;0.80;;;;;;;5.88;80.41;98365.09;4970694;28;20042;-84
2024/02/23 04:48:42;;;;;;;1.77;0.95;;;;;;;5.83;80.73;98350.53;4978111;28;20046;-85
2024/02/23 04:51:09;;;;;;;2.63;0.82;;;;;;;5.80;80.21;98359.25;4976102;28;20049;-81
2024/02/23 04:53:40;;;;;;;0.90;0.57;;;;;;;5.83;80.38;98382.56;4988055;28;20041;-82
2024/02/23 04:56:07;;;;;;;4.78;0.88;;;;;;;5.86;79.98;98376.44;4988689;28;20497;-83
2024/02/23 04:58:34;;;;;;;3.90;0.93;;;;;;;5.88;79.86;98387.59;4976265;28;20050;-83
2024/02/23 05:01:04;;;;;;;1.45;0.88;;;;;;;5.93;79.75;98398.72;4989260;28;20711;-83
2024/02/23 05:03:31;;;;;;;1.65;0.98;;;;;;;5.86;80.00;98407.59;4984347;28;20042;-84
2024/02/23 05:05:58;;;;;;;3.40;0.50;;;;;;;5.83;80.14;98403.31;4977297;28;20413;-83
2024/02/23 05:08:27;;;;;;;3.30;0.60;;;;;;;5.85;79.45;98411.06;4990538;28;20057;-84
2024/02/23 05:10:54;;;;;;;1.92;0.55;;;;;;;5.85;78.08;98401.53;4975358;28;20052;-83
2024/02/23 05:13:20;;;;;;;1.42;0.40;;;;;;;5.88;77.07;98413.56;4993079;28;20042;-82
2024/02/23 05:15:47;;;;;;;1.58;0.40;;;;;;;5.88;76.59;98424.84;4973990;28;20435;-84
2024/02/23 05:18:14;;;;;;;1.38;0.60;;;;;;;5.92;76.73;98418.66;4959369;28;20057;-84
2024/02/23 05:20:41;;;;;;;1.73;0.40;;;;;;;5.94;76.58;98426.41;4974961;28;20080;-84
2024/02/23 05:23:07;;;;;;;2.72;0.55;;;;;;;5.91;77.23;98426.50;4990225;28;20039;-84
2024/02/23 05:25:38;;;;;;;4.03;0.70;;;;;;;5.89;75.75;98444.72;4987919;28;20053;-84
2024/02/23 05:28:06;;;;;;;0.90;0.40;;;;;;;5.80;75.19;98447.53;4990744;28;20049;-84
2024/02/23 05:30:33;;;;;;;1.55;0.45;;;;;;;5.77;75.48;98435.47;4976371;28;20049;-84
2024/02/23 05:33:03;;;;;;;2.03;0.40;;;;;;;5.73;75.25;98446.81;4988238;28;20389;-83
2024/02/23 05:35:37;;;;;;;0.30;0.30;;;;;;;5.79;75.18;98451.88;4996162;28;20041;-85
2024/02/23 05:38:27;;;;;;;1.02;0.43;;;;;;;5.81;75.23;98454.44;4977831;28;20073;-85
2024/02/23 05:40:54;;;;;;;0.85;0.30;;;;;;;5.82;75.02;98470.88;4991767;28;20101;-82
2024/02/23 05:43:21;;;;;;;0.65;0.50;;;;;;;5.82;74.52;98463.94;4973509;28;20057;-84
2024/02/23 05:45:48;;;;;;;1.42;0.40;;;;;;;5.81;74.52;98470.00;4975555;28;20627;-83
2024/02/23 05:48:14;;;;;;;1.42;0.30;;;;;;;5.84;74.13;98469.06;4982609;28;20071;-84
2024/02/23 05:50:41;;;;;;;0.85;0.65;;;;;;;5.83;74.02;98464.75;4977991;28;20501;-84
2024/02/23 05:53:08;;;;;;;3.47;0.55;;;;;;;5.93;74.27;98469.72;4978610;28;20560;-84
2024/02/23 05:55:34;;;;;;;2.88;0.43;;;;;;;5.92;74.16;98475.78;4974147;28;20042;-83
2024/02/23 05:58:01;;;;;;;2.03;0.50;;;;;;;5.86;74.04;98470.75;4989104;28;20042;-84
2024/02/23 06:00:34;;;;;;;4.63;0.50;;;;;;;5.82;73.96;98471.72;5008260;28;20685;-82
2024/02/23 06:03:02;;;;;;;2.10;0.50;;;;;;;5.78;74.17;98470.09;4979731;28;20053;-83
2024/02/23 06:05:29;;;;;;;2.80;0.47;;;;;;;5.79;74.44;98471.81;4991256;28;20070;-82
2024/02/23 06:07:56;;;;;;;2.15;0.52;;;;;;;5.75;74.29;98465.81;4975633;28;20052;-83
2024/02/23 06:10:22;;;;;;;6.00;0.68;;;;;;;5.76;74.32;98475.31;4980606;28;20858;-82
2024/02/23 06:12:49;;;;;;;1.13;0.47;;;;;;;5.76;74.35;98475.31;4984282;28;20559;-84
2024/02/23 06:15:16;;;;;;;7.03;1.90;;;;;;;5.83;74.30;98491.59;4993446;28;20064;-84
2024/02/23 06:17:50;;;;;;;3.05;0.93;;;;;;;5.86;74.32;98493.28;4976518;28;20046;-84
2024/02/23 06:20:19;;;;;;;3.53;0.82;;;;;;;5.90;74.59;98489.69;4974238;28;20409;-85
2024/02/23 06:22:48;;;;;;;1.85;0.50;;;;;;;5.86;74.09;98501.06;4978846;28;20049;-84
2024/02/23 06:25:15;;;;;;;2.92;1.25;;;;;;;5.94;74.74;98504.31;4972858;28;20136;-83
2024/02/23 06:27:45;;;;;;;1.58;0.50;;;;;;;5.96;74.95;98505.13;4977092;28;20053;-83
2024/02/23 06:30:16;;;;;;;3.00;0.68;;;;;;;5.94;75.08;98504.31;4994493;28;20123;-84
2024/02/23 06:32:45;;;;;;;0.57;0.43;;;;;;;5.92;75.27;98513.91;4975734;28;20050;-84
2024/02/23 06:35:13;;;;;;;0.43;0.43;;;;;;;5.92;75.11;98512.16;4973621;28;20056;-85
2024/02/23 06:37:40;;;;;;;1.60;0.60;;;;;;;5.81;75.49;98511.53;4992805;28;20113;-83
2024/02/23 06:40:08;;;;;;;1.38;0.80;;;;;;;5.75;75.82;98509.97;4989432;28;20049;-83
2024/02/23 06:42:35;;;;;;;3.35;0.60;;;;;;;5.76;76.25;98514.28;4987900;28;20061;-84
2024/02/23 06:45:03;;;;;;;3.10;0.50;;;;;;;5.73;76.65;98527.31;5001319;28;20056;-83
2024/02/23 06:47:32;;;;;;;3.95;0.70;;;;;;;5.66;75.82;98519.69;4976221;28;20069;-82
2024/02/23 06:49:59;;;;;;;2.17;0.50;;;;;;;5.68;75.99;98534.34;4976733;28;20072;-83
2024/02/23 06:52:26;;;;;;;3.40;0.93;;;;;;;5.71;75.75;98538.59;4991119;28;20050;-83
2024/02/23 06:54:53;;;;;;;7.57;0.68;;;;;;;5.73;75.67;98542.03;4990106;28;20509;-83
2024/02/23 06:57:19;;;;;;;0.98;0.43;;;;;;;5.74;75.44;98544.59;4978917;28;20045;-83
2024/02/23 06:59:46;;;;;;;0.93;0.73;;;;;;;5.77;75.21;98541.06;4981789;28;20502;-83
2024/02/23 07:02:13;;;;;;;5.78;1.27;;;;;;;5.84;74.76;98552.16;4976129;28;20524;-83
2024/02/23 07:04:39;;;;;;;4.03;0.50;;;;;;;5.83;74.57;98553.91;4974406;28;20054;-84
2024/02/23 07:07:11;;;;;;;2.80;1.02;;;;;;;5.85;74.47;98559.06;4994585;28;20042;-84
2024/02/23 07:09:39;;;;;;;4.97;0.90;;;;;;;5.92;74.29;98563.25;4992789;28;20049;-84
2024/02/23 07:12:11;;;;;;;1.30;0.80;;;;;;;6.00;73.75;98570.84;4961710;28;20073;-84
2024/02/23 07:14:38;;;;;;;3.78;0.65;;;;;;;6.00;73.68;98566.53;4977041;28;20052;-83
2024/02/23 07:17:14;;;;;;;0.98;0.50;;;;;;;6.05;73.49;98572.47;4979907;28;20141;-84
2024/02/23 07:19:41;;;;;;;3.53;0.40;;;;;;;6.05;72.75;98569.00;4980576;28;20158;-83
2024/02/23 07:22:08;;;;;;;7.22;0.65;;;;;;;6.11;72.93;98582.72;4972915;28;20125;-81
2024/02/23 07:24:35;;;;;;;2.00;0.80;;;;;;;6.11;72.28;98584.44;4978509;28;20046;-84
2024/02/23 07:27:03;;;;;;;3.30;0.70;;;;;;;6.16;71.75;98594.75;4990350;28;20042;-82
2024/02/23 07:29:32;;;;;;;5.13;0.47;;;;;;;6.20;71.98;98593.78;5002283;28;20061;-82
2024/02/23 07:31:59;;;;;;;4.65;0.60;;;;;;;6.29;71.79;98596.13;4991358;28;20518;-83
2024/02/23 07:34:25;;;;;;;2.35;0.30;;;;;;;6.35;71.95;98597.72;4991314;28;20457;-83
2024/02/23 07:36:56;;;;;;;3.90;0.65;;;;;;;6.25;70.94;98600.56;5001446;28;20524;-83
2024/02/23 07:39:22;;;;;;;4.68;1.42;;;;;;;6.31;70.86;98609.97;4995300;28;20050;-84
2024/02/23 07:41:49;;;;;;;3.63;0.82;;;;;;;6.33;70.74;98605.56;4986200;28;20048;-85
2024/02/23 07:44:19;;;;;;;1.58;0.45;;;;;;;6.44;70.63;98606.16;4999737;28;20041;-84
2024/02/23 07:46:46;;;;;;;1.92;0.70;;;;;;;6.42;69.96;98615.72;5002066;28;20056;-85
2024/02/23 07:49:13;;;;;;;5.15;0.50;;;;;;;6.55;69.93;98612.84;4998377;28;20054;-84
2024/02/23 07:51:39;;;;;;;5.03;0.80;;;;;;;6.59;69.46;98604.06;4985063;28;20042;-83
2024/02/23 07:54:06;;;;;;;2.33;0.80;;;;;;;6.69;69.18;98612.47;5004142;28;20037;-82
2024/02/23 07:56:37;;;;;;;2.80;0.68;;;;;;;6.78;69.32;98615.69;4993979;28;20069;-83
2024/02/23 07:59:04;;;;;;;1.15;0.65;;;;;;;6.78;69.40;98620.03;4982183;28;20119;-83
2024/02/23 08:01:34;;;;;;;3.83;0.80;;;;;;;6.84;69.11;98619.03;4985923;28;20046;-83
2024/02/23 08:04:00;;;;;;;1.88;0.80;;;;;;;6.89;69.18;98633.59;4997418;28;20497;-84
2024/02/23 08:06:27;;;;;;;1.58;0.63;;;;;;;6.87;68.68;98643.22;4978715;28;20101;-83
2024/02/23 08:08:55;;;;;;;3.53;0.43;;;;;;;6.79;68.84;98643.41;4977539;28;20083;-83
2024/02/23 08:11:21;;;;;;;1.17;0.50;;;;;;;6.83;68.86;98654.59;4983411;28;20049;-82
2024/02/23 08:13:50;;;;;;;1.00;0.90;;;;;;;6.84;69.14;98651.06;4981360;28;20432;-83
2024/02/23 08:16:21;;;;;;;4.40;0.57;;;;;;;6.85;68.90;98658.00;4978251;28;20437;-83
2024/02/23 08:18:47;;;;;;;4.00;0.40;;;;;;;6.83;68.79;98666.72;4974450;28;20050;-82
2024/02/23 08:21:14;;;;;;;1.83;0.68;;;;;;;6.77;68.61;98665.97;4991776;28;20105;-83
2024/02/23 08:23:41;;;;;;;1.05;0.32;;;;;;;6.94;68.58;98672.50;4975380;28;20514;-83
2024/02/23 08:26:10;;;;;;;5.35;1.38;;;;;;;6.99;68.33;98674.97;4992217;28;20042;-83
2024/02/23 08:28:36;;;;;;;1.63;0.50;;;;;;;7.09;68.43;98676.44;4998516;28;20054;-82
2024/02/23 08:31:03;;;;;;;3.50;0.30;;;;;;;7.17;67.80;98678.84;4976738;28;20054;-83
2024/02/23 08:33:30;;;;;;;1.25;0.47;;;;;;;7.11;67.37;98682.47;4990421;28;20049;-82
2024/02/23 08:35:59;;;;;;;2.10;0.30;;;;;;;7.20;67.05;98674.41;4974959;28;20532;-83
2024/02/23 08:38:28;;;;;;;4.95;0.45;;;;;;;7.27;67.34;98675.09;4976979;28;20052;-84
2024/02/23 08:40:58;;;;;;;3.03;0.57;;;;;;;7.39;66.10;98679.09;4976910;28;20060;-82
2024/02/23 08:43:29;;;;;;;1.80;0.45;;;;;;;7.75;64.97;98679.81;4975543;28;20412;-82
2024/02/23 08:45:59;;;;;;;1.20;0.60;;;;;;;7.76;63.71;98671.09;4993266;28;20041;-83
2024/02/23 08:48:26;;;;;;;7.20;0.68;;;;;;;7.77;63.71;98670.22;4996463;28;20149;-84
2024/02/23 08:50:53;;;;;;;1.50;0.40;;;;;;;7.69;63.65;98674.81;4992810;28;20073;-84
2024/02/23 08:53:20;;;;;;;13.63;1.67;;;;;;;7.74;63.37;98667.72;4977941;28;20154;-84
2024/02/23 08:55:46;;;;;;;17.02;2.20;;;;;;;7.88;63.30;98676.84;4993483;28;20068;-83
2024/02/23 08:58:14;;;;;;;7.13;0.77;;;;;;;8.04;62.66;98683.28;4980323;28;20517;-84
2024/02/23 09:00:45;;;;;;;1.55;0.30;;;;;;;8.13;61.78;98690.00;4997534;28;20038;-83
2024/02/23 09:03:14;;;;;;;2.05;0.63;;;;;;;8.22;61.47;98689.69;4995549;28;20528;-83
2024/02/23 09:05:40;;;;;;;5.35;0.30;;;;;;;8.21;61.10;98689.75;4977346;28;20046;-83
2024/02/23 09:08:07;;;;;;;5.15;0.32;;;;;;;8.19;61.44;98686.34;4993113;28;20168;-84
2024/02/23 09:10:41;;;;;;;3.03;0.47;;;;;;;8.16;61.03;98684.69;4975871;28;20077;-83
2024/02/23 09:13:08;;;;;;;;;;;;;;;8.24;60.84;98687.06;4997739;28;20541;-85
2024/02/23 09:15:37;;;;;;;1.00;0.28;;;;;;;8.20;60.69;98688.91;4970973;28;19926;-84
2024/02/23 09:18:05;;;;;;;1.30;0.95;;;;;;;8.34;60.71;98690.22;4977366;28;20042;-84
2024/02/23 09:20:34;;;;;;;4.28;0.63;;;;;;;8.40;59.68;98685.66;4991473;28;20042;-83
2024/02/23 09:23:01;;;;;;;1.85;0.52;;;;;;;8.17;60.29;98688.16;4981724;28;20096;-82
2024/02/23 09:25:28;;;;;;;1.52;0.70;;;;;;;8.40;60.24;98698.69;4997927;28;20042;-84
2024/02/23 09:27:58;;;;;;;1.67;0.60;;;;;;;8.42;59.88;98696.03;4993501;28;20136;-84
2024/02/23 09:30:25;;;;;;;2.03;0.52;;;;;;;8.47;59.37;98701.16;4989572;28;20125;-83
2024/02/23 09:32:52;;;;;;;3.25;0.43;;;;;;;8.41;60.03;98696.97;4976560;28;20542;-84
2024/02/23 09:35:19;;;;;;;3.40;0.20;;;;;;;8.22;60.61;98691.47;4982027;28;20050;-84
2024/02/23 09:37:49;;;;;;;3.55;0.98;;;;;;;8.28;60.29;98679.09;4998936;28;20050;-85
2024/02/23 09:40:16;;;;;;;2.72;0.50;;;;;;;8.13;59.86;98691.75;4980365;28;20112;-82
2024/02/23 09:42:43;;;;;;;0.68;0.25;;;;;;;8.10;60.21;98690.09;4980884;28;20172;-83
2024/02/23 09:45:13;;;;;;;2.00;0.38;;;;;;;8.40;59.75;98697.88;4960829;28;20054;-83
2024/02/23 09:47:41;;;;;;;1.27;0.50;;;;;;;8.41;59.83;98704.78;4977439;28;20137;-83
2024/02/23 09:50:10;;;;;;;8.13;1.15;;;;;;;8.34;60.14;98703.25;4984186;28;20531;-83
2024/02/23 09:52:41;;;;;;;4.45;0.35;;;;;;;8.41;59.98;98710.84;4978488;28;20144;-85
2024/02/23 09:55:10;;;;;;;7.03;0.82;;;;;;;8.44;60.04;98718.56;4990446;28;20062;-83
2024/02/23 09:57:40;;;;;;;0.93;0.30;;;;;;;8.22;60.13;98713.16;4980895;28;20450;-82
2024/02/23 10:00:09;;;;;;;15.82;1.40;;;;;;;8.38;60.18;98716.16;4993325;28;20050;-83
2024/02/23 10:02:37;;;;;;;10.73;1.33;;;;;;;8.47;60.30;98711.59;4976192;28;20409;-83
2024/02/23 10:05:04;;;;;;;5.45;1.02;;;;;;;8.57;59.95;98716.47;4978168;28;20049;-84
2024/02/23 10:07:31;;;;;;;7.43;1.00;;;;;;;8.46;60.57;98718.56;4994907;28;20186;-82
2024/02/23 10:10:01;;;;;;;0.40;0.20;;;;;;;8.27;60.61;98710.44;4997620;28;20053;-82
2024/02/23 10:12:27;;;;;;;4.63;0.40;;;;;;;8.17;61.36;98716.81;4996383;28;20048;-84
2024/02/23 10:14:54;;;;;;;2.03;0.32;;;;;;;8.21;60.75;98705.41;4976821;28;20521;-83
2024/02/23 10:17:21;;;;;;;1.33;0.68;;;;;;;8.16;60.91;98708.16;4979525;28;20060;-83
2024/02/23 10:19:49;;;;;;;3.65;0.30;;;;;;;8.04;61.56;98705.91;4995892;28;20128;-82
2024/02/23 10:22:20;;;;;;;1.98;0.43;;;;;;;8.13;61.62;98716.03;4979174;28;20073;-82
2024/02/23 10:24:47;;;;;;;1.33;0.32;;;;;;;8.17;61.55;98722.88;4979895;28;20040;-82
2024/02/23 10:27:14;;;;;;;0.98;0.20;;;;;;;8.10;61.34;98717.00;4994740;28;20070;-84
2024/02/23 10:29:42;;;;;;;2.70;0.50;;;;;;;8.07;60.72;98705.81;4990740;28;20383;-83
2024/02/23 10:32:16;;;;;;;1.58;0.35;;;;;;;8.07;61.17;98717.09;4977683;28;20042;-84
2024/02/23 10:34:44;;;;;;;2.85;0.22;;;;;;;7.95;62.32;98715.72;5003098;28;20042;-82
2024/02/23 10:37:12;;;;;;;3.05;0.68;;;;;;;8.09;62.02;98717.88;4998921;28;20049;-84
2024/02/23 10:39:42;;;;;;;0.60;0.38;;;;;;;8.08;60.98;98713.59;4981304;28;20053;-83
2024/02/23 10:42:13;;;;;;;0.20;0.20;;;;;;;8.15;60.92;98714.25;4993957;28;20050;-84
2024/02/23 10:44:43;;;;;;;2.22;0.45;;;;;;;8.30;60.44;98712.94;4980569;28;20072;-85
2024/02/23 10:47:10;;;;;;;1.25;0.20;;;;;;;8.31;60.38;98722.47;4996078;28;20033;-84
2024/02/23 10:49:38;;;;;;;6.35;0.60;;;;;;;8.50;59.80;98714.97;4992775;28;20054;-84
2024/02/23 10:52:07;;;;;;;1.52;0.45;;;;;;;8.38;59.43;98716.16;4987491;28;20045;-86
2024/02/23 10:54:38;;;;;;;0.75;0.50;;;;;;;8.56;59.55;98719.97;4988877;28;20128;-84
2024/02/23 10:57:09;;;;;;;2.65;0.95;;;;;;;8.58;59.30;98723.38;4985159;28;20069;-84
2024/02/23 10:59:48;;;;;;;3.83;0.30;;;;;;;8.54;58.86;98713.97;4982871;28;20149;-83
2024/02/23 11:02:24;;;;;;;0.47;0.40;;;;;;;8.76;59.27;98716.72;4997206;28;20046;-84
2024/02/23 11:04:52;;;;;;;2.70;0.30;;;;;;;8.63;59.33;98710.22;4999902;28;20038;-84
2024/02/23 11:07:25;;;;;;;1.63;0.52;;;;;;;8.59;59.35;98722.50;4984809;28;20454;-85
2024/02/23 11:10:16;;;;;;;1.15;0.32;;;;;;;8.60;58.95;98721.59;5003187;28;20076;-83
2024/02/23 11:12:42;;;;;;;1.30;0.40;;;;;;;8.76;58.71;98711.50;4980690;28;20122;-86
2024/02/23 11:15:29;;;;;;;1.38;0.50;;;;;;;8.71;58.83;98707.34;4987884;28;20507;-85
2024/02/23 11:17:56;;;;;;;7.32;0.93;;;;;;;8.76;58.20;98701.06;4996976;28;20053;-86
2024/02/23 11:20:25;;;;;;;5.43;0.43;;;;;;;8.80;58.04;98703.56;5003032;28;20081;-84
2024/02/23 11:22:58;;;;;;;1.40;0.15;;;;;;;8.84;58.07;98697.34;4977276;28;20069;-87
2024/02/23 11:25:28;;;;;;;1.50;0.40;;;;;;;8.82;57.56;98688.72;4964405;28;20052;-85
2024/02/23 11:27:55;;;;;;;1.65;0.30;;;;;;;9.12;57.33;98699.88;4965963;28;20056;-86
2024/02/23 11:30:23;;;;;;;0.82;0.60;;;;;;;8.89;57.74;98705.88;4996873;28;20064;-84
2024/02/23 11:32:54;;;;;;;1.20;0.30;;;;;;;9.02;57.40;98699.34;5003774;28;20513;-84
2024/02/23 11:35:21;;;;;;;1.33;0.55;;;;;;;9.13;56.46;98685.09;4995214;28;20041;-84
2024/02/23 11:37:59;;;;;;;2.22;0.35;;;;;;;9.32;56.79;98682.66;4989673;28;20074;-85
2024/02/23 11:40:38;;;;;;;2.47;0.47;;;;;;;9.13;56.52;98683.31;4984349;28;20113;-85
2024/02/23 11:43:08;;;;;;;3.80;0.43;;;;;;;9.12;56.30;98692.03;4997721;28;20048;-86
2024/02/23 11:45:35;;;;;;;2.40;0.13;;;;;;;9.09;56.21;98689.56;4982707;28;20393;-85